sensor_id;sensor_type;location;lat;lon;timestamp;pressure;altitude;pressure_sealevel;temperature;humidity
47330;BME280;33060;50.178;7.570;2023-03-03T00:01:30;97356.09;;;1.63;66.48
47330;BME280;33060;50.178;7.570;2023-03-03T00:03:58;97348.16;;;1.38;66.71
47330;BME280;33060;50.178;7.570;2023-03-03T00:06:25;97355.47;;;1.25;67.45
47330;BME280;33060;50.178;7.570;2023-03-03T00:08:52;97360.09;;;1.14;68.60
47330;BME280;33060;50.178;7.570;2023-03-03T00:11:19;97361.41;;;0.98;68.93
47330;BME280;33060;50.178;7.570;2023-03-03T00:16:15;97362.41;;;0.61;69.69
47330;BME280;33060;50.178;7.570;2023-03-03T00:18:44;97379.25;;;0.45;70.20
47330;BME280;33060;50.178;7.570;2023-03-03T00:21:25;97363.91;;;0.34;71.39
47330;BME280;33060;50.178;7.570;2023-03-03T00:24:10;97372.00;;;0.22;71.64
47330;BME280;33060;50.178;7.570;2023-03-03T00:26:44;97373.97;;;0.12;71.73
47330;BME280;33060;50.178;7.570;2023-03-03T00:29:44;97377.50;;;0.10;71.71
47330;BME280;33060;50.178;7.570;2023-03-03T00:34:42;97378.81;;;0.27;72.92
47330;BME280;33060;50.178;7.570;2023-03-03T00:37:31;97390.78;;;0.32;73.03
47330;BME280;33060;50.178;7.570;2023-03-03T00:42:48;97382.22;;;0.30;72.49
47330;BME280;33060;50.178;7.570;2023-03-03T00:45:22;97381.47;;;0.59;73.47
47330;BME280;33060;50.178;7.570;2023-03-03T00:47:50;97372.16;;;1.17;71.17
47330;BME280;33060;50.178;7.570;2023-03-03T00:50:29;97373.13;;;1.44;71.96
47330;BME280;33060;50.178;7.570;2023-03-03T00:53:23;97378.84;;;1.55;71.35
47330;BME280;33060;50.178;7.570;2023-03-03T00:55:51;97380.44;;;1.60;70.12
47330;BME280;33060;50.178;7.570;2023-03-03T00:58:19;97376.41;;;1.50;70.69
47330;BME280;33060;50.178;7.570;2023-03-03T01:00:50;97370.28;;;1.22;71.04
47330;BME280;33060;50.178;7.570;2023-03-03T01:03:22;97380.81;;;0.84;72.50
47330;BME280;33060;50.178;7.570;2023-03-03T01:05:51;97387.97;;;0.75;73.06
47330;BME280;33060;50.178;7.570;2023-03-03T01:08:18;97387.63;;;0.89;72.87
47330;BME280;33060;50.178;7.570;2023-03-03T01:10:48;97387.22;;;0.71;72.67
47330;BME280;33060;50.178;7.570;2023-03-03T01:13:21;97388.47;;;0.56;73.87
47330;BME280;33060;50.178;7.570;2023-03-03T01:15:51;97387.25;;;0.36;73.84
47330;BME280;33060;50.178;7.570;2023-03-03T01:18:18;97383.34;;;0.53;75.35
47330;BME280;33060;50.178;7.570;2023-03-03T01:20:45;97378.66;;;0.68;73.63
47330;BME280;33060;50.178;7.570;2023-03-03T01:23:12;97387.44;;;0.95;74.46
47330;BME280;33060;50.178;7.570;2023-03-03T01:25:39;97385.00;;;0.90;73.39
47330;BME280;33060;50.178;7.570;2023-03-03T01:28:06;97383.16;;;0.61;73.74
47330;BME280;33060;50.178;7.570;2023-03-03T01:30:33;97381.13;;;0.72;75.45
47330;BME280;33060;50.178;7.570;2023-03-03T01:33:00;97384.78;;;0.65;75.05
47330;BME280;33060;50.178;7.570;2023-03-03T01:35:26;97387.31;;;0.33;74.24
47330;BME280;33060;50.178;7.570;2023-03-03T01:37:55;97392.91;;;0.16;75.51
47330;BME280;33060;50.178;7.570;2023-03-03T01:40:25;97393.44;;;0.30;77.10
47330;BME280;33060;50.178;7.570;2023-03-03T01:42:53;97388.78;;;0.44;77.14
47330;BME280;33060;50.178;7.570;2023-03-03T01:45:23;97387.88;;;0.10;76.74
47330;BME280;33060;50.178;7.570;2023-03-03T01:48:03;97389.63;;;0.08;78.26
47330;BME280;33060;50.178;7.570;2023-03-03T01:50:56;97394.94;;;0.03;77.60
47330;BME280;33060;50.178;7.570;2023-03-03T01:53:31;97383.00;;;-0.04;77.91
47330;BME280;33060;50.178;7.570;2023-03-03T01:55:59;97384.06;;;-0.13;78.00
47330;BME280;33060;50.178;7.570;2023-03-03T01:58:35;97388.34;;;-0.50;78.54
47330;BME280;33060;50.178;7.570;2023-03-03T02:01:06;97390.41;;;-0.68;78.97
47330;BME280;33060;50.178;7.570;2023-03-03T02:03:34;97391.38;;;-0.73;79.75
47330;BME280;33060;50.178;7.570;2023-03-03T02:06:06;97381.09;;;-0.76;80.78
47330;BME280;33060;50.178;7.570;2023-03-03T02:09:03;97373.47;;;-0.84;80.38
47330;BME280;33060;50.178;7.570;2023-03-03T02:11:33;97382.34;;;-0.97;79.48
47330;BME280;33060;50.178;7.570;2023-03-03T02:14:02;97372.91;;;-1.00;80.19
47330;BME280;33060;50.178;7.570;2023-03-03T02:16:29;97367.84;;;-1.06;79.66
47330;BME280;33060;50.178;7.570;2023-03-03T02:18:56;97372.25;;;-1.09;79.96
47330;BME280;33060;50.178;7.570;2023-03-03T02:21:24;97371.59;;;-1.22;80.86
47330;BME280;33060;50.178;7.570;2023-03-03T02:24:22;97376.03;;;-1.27;80.77
47330;BME280;33060;50.178;7.570;2023-03-03T02:26:51;97380.44;;;-1.34;80.48
47330;BME280;33060;50.178;7.570;2023-03-03T02:29:18;97380.72;;;-1.48;81.08
47330;BME280;33060;50.178;7.570;2023-03-03T02:31:45;97391.34;;;-1.64;80.23
47330;BME280;33060;50.178;7.570;2023-03-03T02:34:13;97390.50;;;-1.65;81.20
47330;BME280;33060;50.178;7.570;2023-03-03T02:36:39;97388.84;;;-1.71;81.10
47330;BME280;33060;50.178;7.570;2023-03-03T02:41:44;97395.13;;;-1.87;82.64
47330;BME280;33060;50.178;7.570;2023-03-03T02:44:17;97390.72;;;-1.80;82.31
47330;BME280;33060;50.178;7.570;2023-03-03T02:46:46;97394.97;;;-1.76;82.32
47330;BME280;33060;50.178;7.570;2023-03-03T02:49:16;97392.34;;;-1.75;82.00
47330;BME280;33060;50.178;7.570;2023-03-03T02:51:43;97399.31;;;-1.78;82.72
47330;BME280;33060;50.178;7.570;2023-03-03T02:54:12;97394.31;;;-1.89;82.11
47330;BME280;33060;50.178;7.570;2023-03-03T02:56:40;97393.53;;;-1.94;81.40
47330;BME280;33060;50.178;7.570;2023-03-03T02:59:07;97404.00;;;-2.03;82.05
47330;BME280;33060;50.178;7.570;2023-03-03T03:01:39;97398.06;;;-2.08;83.33
47330;BME280;33060;50.178;7.570;2023-03-03T03:04:13;97396.31;;;-2.06;83.56
47330;BME280;33060;50.178;7.570;2023-03-03T03:06:43;97399.66;;;-2.01;83.79
47330;BME280;33060;50.178;7.570;2023-03-03T03:09:13;97396.22;;;-2.02;83.38
47330;BME280;33060;50.178;7.570;2023-03-03T03:11:40;97394.53;;;-2.04;84.11
47330;BME280;33060;50.178;7.570;2023-03-03T03:14:10;97401.44;;;-2.05;82.41
47330;BME280;33060;50.178;7.570;2023-03-03T03:16:37;97405.78;;;-2.07;83.86
47330;BME280;33060;50.178;7.570;2023-03-03T03:19:04;97407.59;;;-2.13;82.54
47330;BME280;33060;50.178;7.570;2023-03-03T03:21:32;97411.78;;;-2.05;82.68
47330;BME280;33060;50.178;7.570;2023-03-03T03:23:59;97411.78;;;-2.05;83.60
47330;BME280;33060;50.178;7.570;2023-03-03T03:26:26;97398.03;;;-2.07;84.08
47330;BME280;33060;50.178;7.570;2023-03-03T03:28:53;97405.66;;;-2.01;85.50
47330;BME280;33060;50.178;7.570;2023-03-03T03:31:20;97406.59;;;-2.05;82.51
47330;BME280;33060;50.178;7.570;2023-03-03T03:33:47;97397.22;;;-2.12;84.20
47330;BME280;33060;50.178;7.570;2023-03-03T03:36:16;97399.94;;;-2.21;83.59
47330;BME280;33060;50.178;7.570;2023-03-03T03:38:43;97406.13;;;-2.31;82.92
47330;BME280;33060;50.178;7.570;2023-03-03T03:41:11;97406.31;;;-2.46;83.12
47330;BME280;33060;50.178;7.570;2023-03-03T03:43:38;97402.13;;;-2.55;83.70
47330;BME280;33060;50.178;7.570;2023-03-03T03:46:05;97411.56;;;-2.51;84.31
47330;BME280;33060;50.178;7.570;2023-03-03T03:48:33;97404.66;;;-2.52;84.51
47330;BME280;33060;50.178;7.570;2023-03-03T03:51:02;97399.31;;;-2.38;85.13
47330;BME280;33060;50.178;7.570;2023-03-03T03:53:30;97404.44;;;-2.34;84.61
47330;BME280;33060;50.178;7.570;2023-03-03T03:55:57;97408.88;;;-2.45;83.98
47330;BME280;33060;50.178;7.570;2023-03-03T03:58:23;97416.78;;;-2.56;84.03
47330;BME280;33060;50.178;7.570;2023-03-03T04:01:04;97423.75;;;-2.61;84.42
47330;BME280;33060;50.178;7.570;2023-03-03T04:03:32;97425.41;;;-2.58;83.76
47330;BME280;33060;50.178;7.570;2023-03-03T04:06:02;97421.78;;;-2.45;85.52
47330;BME280;33060;50.178;7.570;2023-03-03T04:08:29;97418.34;;;-2.42;84.74
47330;BME280;33060;50.178;7.570;2023-03-03T04:10:55;97416.53;;;-2.37;85.28
47330;BME280;33060;50.178;7.570;2023-03-03T04:13:23;97415.50;;;-2.24;85.49
47330;BME280;33060;50.178;7.570;2023-03-03T04:15:49;97406.94;;;-2.28;84.68
47330;BME280;33060;50.178;7.570;2023-03-03T04:18:16;97414.75;;;-2.32;85.02
47330;BME280;33060;50.178;7.570;2023-03-03T04:20:44;97409.50;;;-2.28;84.35
47330;BME280;33060;50.178;7.570;2023-03-03T04:23:11;97415.69;;;-2.38;84.81
47330;BME280;33060;50.178;7.570;2023-03-03T04:25:38;97412.97;;;-2.29;87.10
47330;BME280;33060;50.178;7.570;2023-03-03T04:28:11;97414.78;;;-2.37;84.37
47330;BME280;33060;50.178;7.570;2023-03-03T04:30:38;97419.25;;;-2.48;84.61
47330;BME280;33060;50.178;7.570;2023-03-03T04:33:05;97410.72;;;-2.54;84.93
47330;BME280;33060;50.178;7.570;2023-03-03T04:35:33;97411.66;;;-2.59;84.37
47330;BME280;33060;50.178;7.570;2023-03-03T04:38:00;97415.06;;;-2.57;87.08
47330;BME280;33060;50.178;7.570;2023-03-03T04:40:27;97415.88;;;-2.51;85.62
47330;BME280;33060;50.178;7.570;2023-03-03T04:42:54;97415.91;;;-2.54;85.07
47330;BME280;33060;50.178;7.570;2023-03-03T04:45:22;97413.41;;;-2.61;84.76
47330;BME280;33060;50.178;7.570;2023-03-03T04:47:49;97416.06;;;-2.70;84.97
47330;BME280;33060;50.178;7.570;2023-03-03T04:50:16;97419.63;;;-2.78;84.38
47330;BME280;33060;50.178;7.570;2023-03-03T04:52:43;97423.94;;;-2.79;86.37
47330;BME280;33060;50.178;7.570;2023-03-03T04:55:11;97417.03;;;-2.77;85.41
47330;BME280;33060;50.178;7.570;2023-03-03T04:57:38;97424.66;;;-2.66;85.36
47330;BME280;33060;50.178;7.570;2023-03-03T05:00:06;97424.56;;;-2.59;86.01
47330;BME280;33060;50.178;7.570;2023-03-03T05:02:33;97425.41;;;-2.57;84.66
47330;BME280;33060;50.178;7.570;2023-03-03T05:05:00;97419.41;;;-2.62;83.64
47330;BME280;33060;50.178;7.570;2023-03-03T05:07:26;97423.94;;;-2.79;83.04
47330;BME280;33060;50.178;7.570;2023-03-03T05:09:53;97428.22;;;-2.76;84.99
47330;BME280;33060;50.178;7.570;2023-03-03T05:12:20;97429.13;;;-2.82;85.39
47330;BME280;33060;50.178;7.570;2023-03-03T05:14:46;97429.06;;;-2.74;84.41
47330;BME280;33060;50.178;7.570;2023-03-03T05:17:13;97426.53;;;-2.77;86.59
47330;BME280;33060;50.178;7.570;2023-03-03T05:19:40;97432.59;;;-2.83;86.57
47330;BME280;33060;50.178;7.570;2023-03-03T05:22:07;97435.97;;;-2.79;86.92
47330;BME280;33060;50.178;7.570;2023-03-03T05:24:33;97438.56;;;-2.79;86.21
47330;BME280;33060;50.178;7.570;2023-03-03T05:27:00;97435.13;;;-2.80;85.22
47330;BME280;33060;50.178;7.570;2023-03-03T05:29:27;97433.31;;;-2.72;86.07
47330;BME280;33060;50.178;7.570;2023-03-03T05:31:53;97444.44;;;-2.65;85.88
47330;BME280;33060;50.178;7.570;2023-03-03T05:34:20;97447.72;;;-2.51;87.98
47330;BME280;33060;50.178;7.570;2023-03-03T05:36:47;97439.75;;;-2.34;85.08
47330;BME280;33060;50.178;7.570;2023-03-03T05:39:13;97443.97;;;-2.29;86.75
47330;BME280;33060;50.178;7.570;2023-03-03T05:41:40;97439.69;;;-2.30;85.52
47330;BME280;33060;50.178;7.570;2023-03-03T05:44:07;97445.66;;;-2.26;84.87
47330;BME280;33060;50.178;7.570;2023-03-03T05:46:34;97440.59;;;-2.32;84.27
47330;BME280;33060;50.178;7.570;2023-03-03T05:49:01;97442.53;;;-2.49;84.78
47330;BME280;33060;50.178;7.570;2023-03-03T05:51:28;97449.50;;;-2.56;84.58
47330;BME280;33060;50.178;7.570;2023-03-03T05:53:54;97447.81;;;-2.59;86.46
47330;BME280;33060;50.178;7.570;2023-03-03T05:56:22;97459.09;;;-2.67;86.64
47330;BME280;33060;50.178;7.570;2023-03-03T05:58:48;97451.38;;;-2.69;85.73
47330;BME280;33060;50.178;7.570;2023-03-03T06:01:15;97455.72;;;-2.74;86.97
47330;BME280;33060;50.178;7.570;2023-03-03T06:03:42;97460.13;;;-2.83;85.17
47330;BME280;33060;50.178;7.570;2023-03-03T06:06:08;97458.34;;;-2.80;86.96
47330;BME280;33060;50.178;7.570;2023-03-03T06:08:35;97455.50;;;-2.56;88.72
47330;BME280;33060;50.178;7.570;2023-03-03T06:11:02;97449.41;;;-2.48;86.56
47330;BME280;33060;50.178;7.570;2023-03-03T06:13:29;97462.44;;;-2.59;86.11
47330;BME280;33060;50.178;7.570;2023-03-03T06:15:55;97471.34;;;-2.86;84.57
47330;BME280;33060;50.178;7.570;2023-03-03T06:18:22;97469.72;;;-2.96;84.92
47330;BME280;33060;50.178;7.570;2023-03-03T06:20:51;97468.88;;;-2.98;86.67
47330;BME280;33060;50.178;7.570;2023-03-03T06:23:18;97469.59;;;-2.82;87.06
47330;BME280;33060;50.178;7.570;2023-03-03T06:25:45;97481.38;;;-2.59;90.07
47330;BME280;33060;50.178;7.570;2023-03-03T06:28:13;97482.84;;;-2.38;90.21
47330;BME280;33060;50.178;7.570;2023-03-03T06:30:40;97478.16;;;-2.10;90.93
47330;BME280;33060;50.178;7.570;2023-03-03T06:33:07;97495.56;;;-2.22;85.82
47330;BME280;33060;50.178;7.570;2023-03-03T06:35:33;97500.03;;;-2.37;84.37
47330;BME280;33060;50.178;7.570;2023-03-03T06:38:01;97501.09;;;-2.53;85.02
47330;BME280;33060;50.178;7.570;2023-03-03T06:40:27;97500.22;;;-2.50;84.51
47330;BME280;33060;50.178;7.570;2023-03-03T06:42:54;97495.03;;;-2.52;86.15
47330;BME280;33060;50.178;7.570;2023-03-03T06:45:21;97496.75;;;-2.48;85.92
47330;BME280;33060;50.178;7.570;2023-03-03T06:47:47;97491.41;;;-2.33;89.30
47330;BME280;33060;50.178;7.570;2023-03-03T06:50:17;97497.28;;;-2.21;85.93
47330;BME280;33060;50.178;7.570;2023-03-03T06:52:45;97491.81;;;-2.00;89.95
47330;BME280;33060;50.178;7.570;2023-03-03T06:55:20;97497.81;;;-1.96;85.60
47330;BME280;33060;50.178;7.570;2023-03-03T06:57:48;97501.19;;;-1.90;86.36
47330;BME280;33060;50.178;7.570;2023-03-03T07:00:25;97513.91;;;-1.76;86.30
47330;BME280;33060;50.178;7.570;2023-03-03T07:03:01;97505.84;;;-1.55;89.21
47330;BME280;33060;50.178;7.570;2023-03-03T07:05:31;97509.84;;;-1.35;88.61
47330;BME280;33060;50.178;7.570;2023-03-03T07:07:59;97509.66;;;-1.23;87.37
47330;BME280;33060;50.178;7.570;2023-03-03T07:10:28;97524.97;;;-1.09;88.12
47330;BME280;33060;50.178;7.570;2023-03-03T07:13:03;97522.09;;;-0.93;88.29
47330;BME280;33060;50.178;7.570;2023-03-03T07:15:33;97531.63;;;-0.95;87.79
47330;BME280;33060;50.178;7.570;2023-03-03T07:18:01;97535.97;;;-0.95;88.51
47330;BME280;33060;50.178;7.570;2023-03-03T07:20:38;97536.69;;;-0.89;88.83
47330;BME280;33060;50.178;7.570;2023-03-03T07:23:17;97535.97;;;-0.97;90.39
47330;BME280;33060;50.178;7.570;2023-03-03T07:25:46;97542.81;;;-0.93;91.12
47330;BME280;33060;50.178;7.570;2023-03-03T07:28:23;97536.66;;;-0.86;90.93
47330;BME280;33060;50.178;7.570;2023-03-03T07:30:51;97541.69;;;-0.79;91.22
47330;BME280;33060;50.178;7.570;2023-03-03T07:33:28;97549.44;;;-0.76;91.88
47330;BME280;33060;50.178;7.570;2023-03-03T07:35:58;97547.53;;;-0.67;90.99
47330;BME280;33060;50.178;7.570;2023-03-03T07:38:40;97556.75;;;-0.50;90.68
47330;BME280;33060;50.178;7.570;2023-03-03T07:41:17;97555.59;;;-0.34;89.74
47330;BME280;33060;50.178;7.570;2023-03-03T07:43:54;97562.69;;;-0.45;90.16
47330;BME280;33060;50.178;7.570;2023-03-03T07:49:01;97573.19;;;-0.53;91.48
47330;BME280;33060;50.178;7.570;2023-03-03T07:51:38;97571.69;;;-0.65;92.63
47330;BME280;33060;50.178;7.570;2023-03-03T07:54:21;97581.31;;;-0.73;93.47
47330;BME280;33060;50.178;7.570;2023-03-03T07:57:20;97580.81;;;-0.95;94.52
47330;BME280;33060;50.178;7.570;2023-03-03T08:00:00;97591.88;;;-0.85;94.57
47330;BME280;33060;50.178;7.570;2023-03-03T08:02:38;97587.72;;;-0.94;95.71
47330;BME280;33060;50.178;7.570;2023-03-03T08:08:13;97587.38;;;-0.74;95.71
47330;BME280;33060;50.178;7.570;2023-03-03T08:10:51;97591.72;;;-0.76;94.96
47330;BME280;33060;50.178;7.570;2023-03-03T08:13:23;97590.22;;;-0.89;96.15
47330;BME280;33060;50.178;7.570;2023-03-03T08:16:00;97589.97;;;-0.74;95.86
47330;BME280;33060;50.178;7.570;2023-03-03T08:18:31;97598.47;;;-0.66;95.34
47330;BME280;33060;50.178;7.570;2023-03-03T08:21:02;97591.38;;;-0.56;94.97
47330;BME280;33060;50.178;7.570;2023-03-03T08:23:30;97595.09;;;-0.69;94.93
47330;BME280;33060;50.178;7.570;2023-03-03T08:25:57;97601.94;;;-0.67;95.21
47330;BME280;33060;50.178;7.570;2023-03-03T08:28:23;97588.66;;;-0.48;94.58
47330;BME280;33060;50.178;7.570;2023-03-03T08:30:50;97591.13;;;-0.41;93.90
47330;BME280;33060;50.178;7.570;2023-03-03T08:33:25;97593.63;;;-0.35;93.74
47330;BME280;33060;50.178;7.570;2023-03-03T08:35:52;97597.00;;;-0.31;93.51
47330;BME280;33060;50.178;7.570;2023-03-03T08:38:20;97604.03;;;-0.39;93.25
47330;BME280;33060;50.178;7.570;2023-03-03T08:40:47;97602.84;;;-0.21;94.19
47330;BME280;33060;50.178;7.570;2023-03-03T08:43:14;97605.03;;;0.02;92.63
47330;BME280;33060;50.178;7.570;2023-03-03T08:45:49;97595.75;;;0.32;91.72
47330;BME280;33060;50.178;7.570;2023-03-03T08:48:16;97591.09;;;0.47;89.63
47330;BME280;33060;50.178;7.570;2023-03-03T08:50:43;97591.06;;;0.49;88.41
47330;BME280;33060;50.178;7.570;2023-03-03T08:53:12;97597.50;;;0.31;89.12
47330;BME280;33060;50.178;7.570;2023-03-03T08:55:40;97601.66;;;0.40;89.59
47330;BME280;33060;50.178;7.570;2023-03-03T08:58:07;97611.63;;;0.16;89.67
47330;BME280;33060;50.178;7.570;2023-03-03T09:00:34;97597.66;;;0.23;89.63
47330;BME280;33060;50.178;7.570;2023-03-03T09:03:01;97597.47;;;0.33;89.92
47330;BME280;33060;50.178;7.570;2023-03-03T09:05:28;97605.59;;;0.57;88.14
47330;BME280;33060;50.178;7.570;2023-03-03T09:07:55;97611.59;;;0.60;87.90
47330;BME280;33060;50.178;7.570;2023-03-03T09:10:24;97611.59;;;0.61;87.66
47330;BME280;33060;50.178;7.570;2023-03-03T09:12:56;97611.94;;;0.43;87.86
47330;BME280;33060;50.178;7.570;2023-03-03T09:15:32;97605.63;;;0.56;87.65
47330;BME280;33060;50.178;7.570;2023-03-03T09:18:12;97613.94;;;0.72;87.30
47330;BME280;33060;50.178;7.570;2023-03-03T09:20:45;97613.47;;;0.92;86.83
47330;BME280;33060;50.178;7.570;2023-03-03T09:23:37;97612.53;;;0.96;85.35
47330;BME280;33060;50.178;7.570;2023-03-03T09:29:23;97620.09;;;1.42;83.79
47330;BME280;33060;50.178;7.570;2023-03-03T09:31:54;97609.75;;;1.73;82.45
47330;BME280;33060;50.178;7.570;2023-03-03T09:34:35;97615.69;;;1.78;81.45
47330;BME280;33060;50.178;7.570;2023-03-03T09:37:26;97614.91;;;2.07;80.53
47330;BME280;33060;50.178;7.570;2023-03-03T09:39:55;97620.09;;;2.07;81.27
47330;BME280;33060;50.178;7.570;2023-03-03T09:42:46;97619.38;;;2.33;79.62
47330;BME280;33060;50.178;7.570;2023-03-03T09:48:01;97629.72;;;2.05;79.34
47330;BME280;33060;50.178;7.570;2023-03-03T09:50:35;97621.59;;;2.17;79.17
47330;BME280;33060;50.178;7.570;2023-03-03T10:03:57;97637.75;;;2.29;77.07
47330;BME280;33060;50.178;7.570;2023-03-03T10:06:42;97632.75;;;2.52;76.90
47330;BME280;33060;50.178;7.570;2023-03-03T10:09:31;97632.78;;;2.50;76.62
47330;BME280;33060;50.178;7.570;2023-03-03T10:14:58;97636.69;;;3.23;73.75
47330;BME280;33060;50.178;7.570;2023-03-03T10:17:57;97638.53;;;3.72;72.96
47330;BME280;33060;50.178;7.570;2023-03-03T10:26:30;97639.50;;;4.44;68.43
47330;BME280;33060;50.178;7.570;2023-03-03T10:29:23;97647.94;;;3.78;69.03
47330;BME280;33060;50.178;7.570;2023-03-03T10:37:59;97646.97;;;3.27;72.05
47330;BME280;33060;50.178;7.570;2023-03-03T10:41:06;97648.38;;;3.37;71.67
47330;BME280;33060;50.178;7.570;2023-03-03T10:49:16;97651.38;;;3.25;70.75
47330;BME280;33060;50.178;7.570;2023-03-03T10:54:47;97656.41;;;3.84;69.48
47330;BME280;33060;50.178;7.570;2023-03-03T10:57:32;97676.34;;;3.32;69.70
47330;BME280;33060;50.178;7.570;2023-03-03T11:14:46;97682.75;;;3.50;70.20
47330;BME280;33060;50.178;7.570;2023-03-03T11:19:54;97670.78;;;3.43;70.68
47330;BME280;33060;50.178;7.570;2023-03-03T11:22:38;97675.78;;;3.51;69.81
47330;BME280;33060;50.178;7.570;2023-03-03T11:28:18;97679.91;;;2.72;72.80
47330;BME280;33060;50.178;7.570;2023-03-03T11:33:51;97669.66;;;3.52;70.49
47330;BME280;33060;50.178;7.570;2023-03-03T11:36:38;97663.44;;;4.07;68.87
47330;BME280;33060;50.178;7.570;2023-03-03T11:39:15;97662.38;;;4.13;68.98
47330;BME280;33060;50.178;7.570;2023-03-03T11:42:14;97664.09;;;3.62;69.74
47330;BME280;33060;50.178;7.570;2023-03-03T11:44:54;97657.28;;;3.58;69.94
47330;BME280;33060;50.178;7.570;2023-03-03T11:47:53;97662.13;;;3.43;70.73
47330;BME280;33060;50.178;7.570;2023-03-03T11:50:25;97654.19;;;3.46;70.39
47330;BME280;33060;50.178;7.570;2023-03-03T11:53:24;97650.88;;;3.14;71.20
47330;BME280;33060;50.178;7.570;2023-03-03T11:56:00;97654.19;;;3.46;70.80
47330;BME280;33060;50.178;7.570;2023-03-03T11:58:41;97643.88;;;3.43;69.93
47330;BME280;33060;50.178;7.570;2023-03-03T12:01:16;97633.84;;;3.57;70.84
47330;BME280;33060;50.178;7.570;2023-03-03T12:03:48;97639.38;;;3.73;70.42
47330;BME280;33060;50.178;7.570;2023-03-03T12:15:01;97620.25;;;3.74;69.87
47330;BME280;33060;50.178;7.570;2023-03-03T12:25:35;97599.75;;;4.36;69.60
47330;BME280;33060;50.178;7.570;2023-03-03T12:33:50;97589.06;;;4.42;68.71
47330;BME280;33060;50.178;7.570;2023-03-03T12:36:38;97588.75;;;4.28;67.06
47330;BME280;33060;50.178;7.570;2023-03-03T12:42:15;97576.53;;;4.29;66.77
47330;BME280;33060;50.178;7.570;2023-03-03T12:45:08;97570.63;;;4.47;68.02
47330;BME280;33060;50.178;7.570;2023-03-03T12:47:45;97575.31;;;4.14;69.01
47330;BME280;33060;50.178;7.570;2023-03-03T12:50:29;97578.69;;;4.41;69.35
47330;BME280;33060;50.178;7.570;2023-03-03T12:53:23;97570.50;;;4.50;68.84
47330;BME280;33060;50.178;7.570;2023-03-03T12:55:55;97574.66;;;4.56;67.94
47330;BME280;33060;50.178;7.570;2023-03-03T12:58:42;97566.53;;;4.63;67.07
47330;BME280;33060;50.178;7.570;2023-03-03T13:04:02;97572.03;;;4.56;66.69
47330;BME280;33060;50.178;7.570;2023-03-03T13:06:42;97565.00;;;4.58;67.40
47330;BME280;33060;50.178;7.570;2023-03-03T13:09:56;97567.50;;;4.61;65.40
47330;BME280;33060;50.178;7.570;2023-03-03T13:12:50;97565.22;;;4.51;67.07
47330;BME280;33060;50.178;7.570;2023-03-03T13:15:24;97566.94;;;4.52;66.67
47330;BME280;33060;50.178;7.570;2023-03-03T13:20:52;97559.16;;;4.51;66.10
47330;BME280;33060;50.178;7.570;2023-03-03T13:25:59;97556.16;;;4.62;67.65
47330;BME280;33060;50.178;7.570;2023-03-03T13:31:22;97554.75;;;4.75;67.23
47330;BME280;33060;50.178;7.570;2023-03-03T13:33:55;97555.50;;;4.78;67.47
47330;BME280;33060;50.178;7.570;2023-03-03T13:36:29;97552.13;;;4.75;66.86
47330;BME280;33060;50.178;7.570;2023-03-03T13:39:01;97547.47;;;4.83;67.16
47330;BME280;33060;50.178;7.570;2023-03-03T13:44:42;97551.84;;;4.82;66.10
47330;BME280;33060;50.178;7.570;2023-03-03T13:47:20;97556.16;;;4.83;65.80
47330;BME280;33060;50.178;7.570;2023-03-03T13:52:46;97559.16;;;4.96;66.48
47330;BME280;33060;50.178;7.570;2023-03-03T13:55:28;97553.31;;;4.90;66.30
47330;BME280;33060;50.178;7.570;2023-03-03T14:00:29;97560.19;;;4.47;67.18
47330;BME280;33060;50.178;7.570;2023-03-03T14:03:21;97557.56;;;4.70;66.04
47330;BME280;33060;50.178;7.570;2023-03-03T14:05:51;97557.72;;;4.42;66.83
47330;BME280;33060;50.178;7.570;2023-03-03T14:11:28;97563.25;;;4.35;67.63
47330;BME280;33060;50.178;7.570;2023-03-03T14:14:15;97552.41;;;4.45;67.66
47330;BME280;33060;50.178;7.570;2023-03-03T14:17:01;97550.16;;;4.58;67.64
47330;BME280;33060;50.178;7.570;2023-03-03T14:19:59;97559.78;;;4.58;67.69
47330;BME280;33060;50.178;7.570;2023-03-03T14:25:14;97541.06;;;4.46;68.09
47330;BME280;33060;50.178;7.570;2023-03-03T14:35:32;97534.69;;;4.53;68.14
47330;BME280;33060;50.178;7.570;2023-03-03T14:38:02;97548.47;;;4.57;68.42
47330;BME280;33060;50.178;7.570;2023-03-03T14:40:31;97545.91;;;4.56;68.54
47330;BME280;33060;50.178;7.570;2023-03-03T14:43:00;97550.09;;;4.38;67.64
47330;BME280;33060;50.178;7.570;2023-03-03T14:45:35;97549.38;;;4.33;68.67
47330;BME280;33060;50.178;7.570;2023-03-03T14:48:16;97550.63;;;4.22;69.36
47330;BME280;33060;50.178;7.570;2023-03-03T14:50:56;97547.47;;;4.14;68.89
47330;BME280;33060;50.178;7.570;2023-03-03T14:53:33;97542.69;;;4.25;68.95
47330;BME280;33060;50.178;7.570;2023-03-03T14:58:48;97550.03;;;4.39;69.88
47330;BME280;33060;50.178;7.570;2023-03-03T15:01:32;97548.03;;;4.46;69.45
47330;BME280;33060;50.178;7.570;2023-03-03T15:09:28;97537.75;;;4.41;69.88
47330;BME280;33060;50.178;7.570;2023-03-03T15:12:00;97544.00;;;4.37;69.45
47330;BME280;33060;50.178;7.570;2023-03-03T15:14:48;97535.06;;;4.43;69.76
47330;BME280;33060;50.178;7.570;2023-03-03T15:17:42;97531.81;;;4.38;69.19
47330;BME280;33060;50.178;7.570;2023-03-03T15:35:03;97534.34;;;3.92;69.74
47330;BME280;33060;50.178;7.570;2023-03-03T15:37:51;97537.75;;;3.94;70.05
47330;BME280;33060;50.178;7.570;2023-03-03T15:40:38;97534.06;;;4.00;69.54
47330;BME280;33060;50.178;7.570;2023-03-03T15:54:35;97534.03;;;3.77;70.59
47330;BME280;33060;50.178;7.570;2023-03-03T16:02:42;97546.75;;;3.61;70.94
47330;BME280;33060;50.178;7.570;2023-03-03T16:07:55;97545.50;;;3.46;71.68
47330;BME280;33060;50.178;7.570;2023-03-03T16:10:46;97549.19;;;3.40;72.47
47330;BME280;33060;50.178;7.570;2023-03-03T16:18:31;97550.84;;;3.17;73.63
47330;BME280;33060;50.178;7.570;2023-03-03T16:24:30;97569.88;;;2.92;73.89
47330;BME280;33060;50.178;7.570;2023-03-03T16:27:14;97570.91;;;2.87;74.24
47330;BME280;33060;50.178;7.570;2023-03-03T16:32:40;97568.75;;;2.73;74.52
47330;BME280;33060;50.178;7.570;2023-03-03T16:35:25;97572.81;;;2.53;74.72
47330;BME280;33060;50.178;7.570;2023-03-03T16:38:23;97574.78;;;2.45;75.48
47330;BME280;33060;50.178;7.570;2023-03-03T16:40:52;97580.44;;;2.30;76.36
47330;BME280;33060;50.178;7.570;2023-03-03T16:46:33;97590.69;;;2.05;77.46
47330;BME280;33060;50.178;7.570;2023-03-03T16:49:25;97594.34;;;1.98;78.32
47330;BME280;33060;50.178;7.570;2023-03-03T16:52:11;97601.53;;;1.88;78.50